East Orwell, Ohio
Current Conditions -  °F | °C
As of 11:53 PM on Sunday 21 Dec 2014 (Local Time) from KHZY Reporting Station
Scattered Clouds Scattered Clouds  
Wind Chill: 22°   Ceiling: Unl
Heat Index: 28°   Visibility: 10mi
Dew Point: 21°   Wind: 6mph
Humidity: 75%   Direction: 120°ESE
Pressure: 30.22"   Gusts: NA
Location:  41.5284°N, 80.8237°W
Report Text: KHZY 220453Z AUTO 12005KT 10SM SCT025 M02/M06 A3022 RMK AO2 SLP243 T10221061 400001022
Loading
Personal Weather Stations






























Interactive Weather Map New forecast layout! Learn more

10-Day Weather Forecast

Advertisements
Track Severe Weather on mobile